Time,TemperatureF,DewpointF,PressureIn,WindDirection,WindDirectionDegrees,WindSpeedMPH,WindSpeedGustMPH,Humidity,HourlyPrecipIn,Conditions,Clouds,dailyrainin,SoftwareType,DateUTC
2013-07-13 00:01:00,67.0,44.0,30.01,SE,135,10.0,17.0,43,0.00,,,0.00,,2013-07-13 06:01:00,
2013-07-13 00:11:00,67.0,44.0,30.01,East,94,9.0,13.0,43,0.00,,,0.00,,2013-07-13 06:11:00,
2013-07-13 00:22:00,67.0,44.0,30.01,ESE,115,10.0,14.0,43,0.00,,,0.00,,2013-07-13 06:22:00,
2013-07-13 00:43:00,67.0,43.0,30.02,ESE,105,10.0,14.0,42,0.00,,,0.00,,2013-07-13 06:43:00,
2013-07-13 00:52:00,67.0,42.0,30.02,ESE,111,11.0,13.0,40,0.00,,,0.00,,2013-07-13 06:52:00,
2013-07-13 01:02:00,67.0,43.0,30.02,ESE,111,11.0,15.0,41,0.00,,,0.00,,2013-07-13 07:02:00,
2013-07-13 01:11:00,67.0,43.0,30.02,ESE,112,10.0,15.0,42,0.00,,,0.00,,2013-07-13 07:11:00,
2013-07-13 01:33:00,66.0,42.0,30.02,ESE,115,12.0,15.0,41,0.00,,,0.00,,2013-07-13 07:33:00,
2013-07-13 01:44:00,66.0,41.0,30.02,ESE,103,10.0,15.0,40,0.00,,,0.00,,2013-07-13 07:44:00,
2013-07-13 01:53:00,66.0,40.0,30.02,ESE,116,11.0,15.0,39,0.00,,,0.00,,2013-07-13 07:53:00,
2013-07-13 02:01:00,67.0,41.0,30.01,ESE,116,10.0,17.0,38,0.00,,,0.00,,2013-07-13 08:01:00,
2013-07-13 02:11:00,67.0,41.0,30.01,SE,128,11.0,17.0,38,0.00,,,0.00,,2013-07-13 08:11:00,
2013-07-13 02:22:00,67.0,41.0,30.01,ESE,103,11.0,14.0,38,0.00,,,0.00,,2013-07-13 08:22:00,
2013-07-13 02:33:00,67.0,40.0,30.01,SE,131,11.0,15.0,37,0.00,,,0.00,,2013-07-13 08:33:00,
2013-07-13 02:43:00,67.0,40.0,30.01,ESE,109,11.0,14.0,37,0.00,,,0.00,,2013-07-13 08:43:00,
2013-07-13 02:52:00,67.0,40.0,30.01,ESE,111,12.0,15.0,37,0.00,,,0.00,,2013-07-13 08:52:00,
2013-07-13 03:02:00,66.0,39.0,30.01,SE,128,11.0,15.0,37,0.00,,,0.00,,2013-07-13 09:02:00,
2013-07-13 03:11:00,66.0,39.0,30.01,ESE,117,9.0,14.0,37,0.00,,,0.00,,2013-07-13 09:11:00,
2013-07-13 03:32:00,66.0,39.0,30.01,ESE,112,10.0,15.0,37,0.00,,,0.00,,2013-07-13 09:32:00,
2013-07-13 03:42:00,66.0,40.0,30.01,SE,124,9.0,12.0,38,0.00,,,0.00,,2013-07-13 09:42:00,
2013-07-13 03:53:00,66.0,40.0,30.01,ESE,119,11.0,15.0,38,0.00,,,0.00,,2013-07-13 09:53:00,
2013-07-13 04:01:00,65.0,39.0,30.02,ESE,119,9.0,14.0,39,0.00,,,0.00,,2013-07-13 10:01:00,
2013-07-13 04:32:00,66.0,38.0,30.01,ESE,108,12.0,18.0,35,0.00,,,0.00,,2013-07-13 10:32:00,
2013-07-13 04:42:00,66.0,39.0,30.02,ESE,103,11.0,14.0,37,0.00,,,0.00,,2013-07-13 10:42:00,
2013-07-13 04:52:00,66.0,38.0,30.02,ESE,117,11.0,16.0,36,0.00,,,0.00,,2013-07-13 10:52:00,
2013-07-13 05:01:00,66.0,38.0,30.01,ESE,119,13.0,16.0,36,0.00,,,0.00,,2013-07-13 11:01:00,
2013-07-13 05:11:00,66.0,38.0,30.02,ESE,113,11.0,18.0,35,0.00,,,0.00,,2013-07-13 11:11:00,
2013-07-13 05:32:00,66.0,38.0,30.02,SE,132,11.0,16.0,35,0.00,,,0.00,,2013-07-13 11:32:00,
2013-07-13 05:42:00,66.0,38.0,30.02,ESE,107,12.0,18.0,35,0.00,,,0.00,,2013-07-13 11:42:00,
2013-07-13 05:52:00,66.0,38.0,30.02,ESE,121,12.0,17.0,36,0.00,,,0.00,,2013-07-13 11:52:00,
2013-07-13 06:02:00,66.0,39.0,30.02,SE,128,12.0,19.0,37,0.00,,,0.00,,2013-07-13 12:02:00,
2013-07-13 06:32:00,66.0,40.0,30.03,ESE,116,11.0,16.0,39,0.00,,,0.00,,2013-07-13 12:32:00,
2013-07-13 06:43:00,65.0,43.0,30.03,ESE,117,10.0,16.0,45,0.00,,,0.00,,2013-07-13 12:43:00,
2013-07-13 06:52:00,64.0,43.0,30.03,ESE,112,9.0,15.0,47,0.00,,,0.00,,2013-07-13 12:52:00,
2013-07-13 08:32:00,62.0,48.0,30.07,ESE,113,7.0,10.0,60,0.00,,,0.02,,2013-07-13 14:32:00,
2013-07-13 08:53:00,63.0,51.0,30.08,SE,126,4.0,7.0,64,0.00,,,0.02,,2013-07-13 14:53:00,
2013-07-13 09:02:00,65.0,51.0,30.09,SE,130,5.0,10.0,61,0.00,,,0.02,,2013-07-13 15:02:00,
2013-07-13 09:12:00,65.0,50.0,30.09,SSE,149,4.0,10.0,59,0.00,,,0.02,,2013-07-13 15:12:00,
2013-07-13 09:33:00,65.0,50.0,30.09,SE,142,7.0,11.0,58,0.00,,,0.02,,2013-07-13 15:33:00,
2013-07-13 09:53:00,65.0,50.0,30.09,ESE,118,9.0,15.0,59,0.00,,,0.02,,2013-07-13 15:53:00,
2013-07-13 10:01:00,66.0,50.0,30.10,SE,130,8.0,12.0,57,0.00,,,0.02,,2013-07-13 16:01:00,
2013-07-13 10:11:00,66.0,49.0,30.10,South,185,5.0,12.0,54,0.00,,,0.02,,2013-07-13 16:11:00,
2013-07-13 10:32:00,68.0,51.0,30.11,SE,127,7.0,11.0,54,0.00,,,0.02,,2013-07-13 16:32:00,
2013-07-13 10:43:00,67.0,51.0,30.11,ESE,111,7.0,11.0,57,0.00,,,0.02,,2013-07-13 16:43:00,
2013-07-13 10:53:00,68.0,51.0,30.11,SSE,148,8.0,11.0,54,0.00,,,0.02,,2013-07-13 16:53:00,
2013-07-13 11:01:00,69.0,51.0,30.11,ESE,111,8.0,12.0,53,0.00,,,0.02,,2013-07-13 17:01:00,
2013-07-13 11:11:00,69.0,52.0,30.11,SSE,154,7.0,12.0,54,0.00,,,0.02,,2013-07-13 17:11:00,
2013-07-13 11:33:00,70.0,52.0,30.11,ESE,102,7.0,12.0,53,0.00,,,0.02,,2013-07-13 17:33:00,
2013-07-13 11:42:00,70.0,52.0,30.11,SE,128,7.0,11.0,52,0.00,,,0.02,,2013-07-13 17:42:00,
2013-07-13 11:52:00,72.0,52.0,30.11,SSW,194,3.0,11.0,49,0.00,,,0.02,,2013-07-13 17:52:00,
2013-07-13 12:01:00,71.0,47.0,30.11,WNW,294,7.0,11.0,42,0.00,,,0.02,,2013-07-13 18:01:00,
2013-07-13 12:11:00,72.0,50.0,30.11,NW,314,8.0,12.0,46,0.00,,,0.02,,2013-07-13 18:11:00,
2013-07-13 12:32:00,73.0,45.0,30.12,WSW,255,6.0,11.0,37,0.00,,,0.02,,2013-07-13 18:32:00,
2013-07-13 12:43:00,73.0,47.0,30.12,West,280,8.0,12.0,40,0.00,,,0.02,,2013-07-13 18:43:00,
2013-07-13 12:52:00,73.0,44.0,30.12,WNW,294,10.0,15.0,35,0.00,,,0.02,,2013-07-13 18:52:00,
2013-07-13 13:01:00,74.0,44.0,30.12,West,260,8.0,13.0,34,0.00,,,0.02,,2013-07-13 19:01:00,
2013-07-13 13:11:00,74.0,45.0,30.12,West,263,8.0,14.0,35,0.00,,,0.02,,2013-07-13 19:11:00,
2013-07-13 13:32:00,73.0,47.0,30.12,SW,222,3.0,8.0,39,0.00,,,0.02,,2013-07-13 19:32:00,
2013-07-13 13:44:00,74.0,43.0,30.11,SSW,211,3.0,9.0,33,0.00,,,0.02,,2013-07-13 19:44:00,
2013-07-13 13:52:00,73.0,41.0,30.12,West,263,8.0,10.0,31,0.00,,,0.02,,2013-07-13 19:52:00,
2013-07-13 14:11:00,71.0,40.0,30.12,WSW,256,5.0,9.0,32,0.00,,,0.02,,2013-07-13 20:11:00,
2013-07-13 14:33:00,76.0,41.0,30.11,SSW,210,4.0,7.0,29,0.00,,,0.02,,2013-07-13 20:33:00,
2013-07-13 14:42:00,75.0,41.0,30.12,West,273,7.0,11.0,29,0.00,,,0.02,,2013-07-13 20:42:00,
2013-07-13 14:52:00,75.0,40.0,30.11,West,263,5.0,13.0,28,0.00,,,0.02,,2013-07-13 20:52:00,
2013-07-13 15:11:00,77.0,38.0,30.11,SW,228,9.0,18.0,25,0.00,,,0.02,,2013-07-13 21:11:00,
2013-07-13 15:22:00,77.0,40.0,30.12,West,281,6.0,11.0,27,0.00,,,0.02,,2013-07-13 21:22:00,
2013-07-13 15:42:00,77.0,38.0,30.11,West,268,7.0,13.0,25,0.00,,,0.02,,2013-07-13 21:42:00,
2013-07-13 15:53:00,76.0,43.0,30.11,WNW,298,4.0,11.0,31,0.00,,,0.02,,2013-07-13 21:53:00,
2013-07-13 16:01:00,77.0,39.0,30.11,West,269,4.0,10.0,26,0.00,,,0.02,,2013-07-13 22:01:00,
2013-07-13 16:11:00,78.0,38.0,30.11,SSW,204,4.0,10.0,24,0.00,,,0.02,,2013-07-13 22:11:00,
2013-07-13 17:11:00,79.0,36.0,30.10,West,272,8.0,12.0,21,0.00,,,0.02,,2013-07-13 23:11:00,
2013-07-13 17:52:00,77.0,37.0,30.09,West,267,4.0,11.0,24,0.00,,,0.02,,2013-07-13 23:52:00,
2013-07-13 18:01:00,77.0,36.0,30.09,West,264,8.0,16.0,23,0.00,,,0.02,,2013-07-14 00:01:00,
2013-07-13 18:11:00,76.0,36.0,30.09,West,276,7.0,12.0,23,0.00,,,0.02,,2013-07-14 00:11:00,
2013-07-13 18:33:00,77.0,37.0,30.09,SW,229,4.0,10.0,24,0.00,,,0.02,,2013-07-14 00:33:00,
2013-07-13 19:32:00,74.0,45.0,30.11,SE,132,7.0,11.0,35,0.00,,,0.02,,2013-07-14 01:32:00,
2013-07-13 19:43:00,66.0,48.0,30.11,ESE,121,16.0,24.0,53,0.00,,,0.02,,2013-07-14 01:43:00,
2013-07-13 20:01:00,65.0,48.0,30.10,SE,142,15.0,23.0,55,0.00,,,0.02,,2013-07-14 02:01:00,
2013-07-13 20:11:00,65.0,49.0,30.11,SE,135,16.0,25.0,56,0.00,,,0.02,,2013-07-14 02:11:00,
2013-07-13 20:22:00,65.0,48.0,30.10,SSE,148,13.0,22.0,54,0.00,,,0.02,,2013-07-14 02:22:00,
2013-07-13 20:32:00,65.0,47.0,30.10,ESE,111,14.0,18.0,52,0.00,,,0.02,,2013-07-14 02:32:00,
2013-07-13 20:42:00,66.0,46.0,30.10,ESE,115,14.0,18.0,48,0.00,,,0.02,,2013-07-14 02:42:00,
2013-07-13 20:53:00,66.0,46.0,30.11,ESE,112,13.0,19.0,48,0.00,,,0.02,,2013-07-14 02:53:00,
2013-07-13 21:01:00,65.0,45.0,30.11,East,90,12.0,16.0,49,0.00,,,0.02,,2013-07-14 03:01:00,
2013-07-13 21:11:00,65.0,46.0,30.11,East,92,11.0,18.0,50,0.00,,,0.02,,2013-07-14 03:11:00,
2013-07-13 21:32:00,62.0,47.0,30.11,East,84,11.0,17.0,57,0.00,,,0.02,,2013-07-14 03:32:00,
2013-07-13 21:43:00,62.0,46.0,30.11,East,84,11.0,15.0,55,0.00,,,0.02,,2013-07-14 03:43:00,
2013-07-13 21:53:00,62.0,45.0,30.11,East,101,10.0,16.0,54,0.00,,,0.02,,2013-07-14 03:53:00,
2013-07-13 22:01:00,63.0,45.0,30.11,ESE,113,14.0,19.0,51,0.00,,,0.02,,2013-07-14 04:01:00,
2013-07-13 22:11:00,64.0,44.0,30.11,ESE,110,14.0,19.0,49,0.00,,,0.02,,2013-07-14 04:11:00,
2013-07-13 22:22:00,64.0,44.0,30.11,ESE,121,15.0,19.0,49,0.00,,,0.02,,2013-07-14 04:22:00,
2013-07-13 22:32:00,64.0,44.0,30.12,SE,128,14.0,21.0,49,0.00,,,0.02,,2013-07-14 04:32:00,
2013-07-13 22:42:00,63.0,44.0,30.12,ESE,113,13.0,21.0,50,0.00,,,0.02,,2013-07-14 04:42:00,
2013-07-13 22:53:00,63.0,44.0,30.13,ESE,116,14.0,18.0,50,0.00,,,0.02,,2013-07-14 04:53:00,
2013-07-13 23:02:00,63.0,45.0,30.13,ESE,103,9.0,15.0,52,0.00,,,0.02,,2013-07-14 05:02:00,
2013-07-13 23:11:00,63.0,45.0,30.13,ESE,103,9.0,15.0,52,0.00,,,0.02,,2013-07-14 05:11:00,
2013-07-13 23:32:00,62.0,44.0,30.12,ESE,117,14.0,17.0,51,0.00,,,0.02,,2013-07-14 05:32:00,
2013-07-13 23:43:00,63.0,44.0,30.13,SE,126,12.0,16.0,49,0.00,,,0.02,,2013-07-14 05:43:00,
2013-07-13 23:53:00,63.0,44.0,30.13,SE,124,13.0,17.0,50,0.00,,,0.02,,2013-07-14 05:53:00,